createdAt,value
2022-10-18T00:00:14.212Z,28.70
2022-10-18T00:02:40.816Z,33.33
2022-10-18T00:05:07.599Z,29.90
2022-10-18T00:07:34.240Z,33.97
2022-10-18T00:10:00.797Z,30.13
2022-10-18T00:12:27.509Z,30.80
2022-10-18T00:14:54.043Z,33.70
2022-10-18T00:17:20.631Z,30.87
2022-10-18T00:19:48.178Z,32.93
2022-10-18T00:22:14.699Z,34.30
2022-10-18T00:24:41.218Z,33.57
2022-10-18T00:27:07.873Z,35.40
2022-10-18T00:29:34.675Z,35.10
2022-10-18T00:32:01.246Z,34.07
2022-10-18T00:34:27.841Z,32.43
2022-10-18T00:36:55.106Z,34.73
2022-10-18T00:39:22.383Z,37.23
2022-10-18T00:41:49.696Z,33.40
2022-10-18T00:44:16.230Z,35.93
2022-10-18T00:46:44.081Z,40.10
2022-10-18T00:49:12.956Z,39.43
2022-10-18T00:51:44.982Z,39.23
2022-10-18T00:54:12.349Z,42.87
2022-10-18T00:56:39.419Z,38.70
2022-10-18T00:59:06.354Z,37.73
2022-10-18T01:01:32.927Z,41.97
2022-10-18T01:03:59.621Z,39.97
2022-10-18T01:06:28.233Z,41.60
2022-10-18T01:09:00.927Z,45.50
2022-10-18T01:11:33.253Z,42.10
2022-10-18T01:13:59.739Z,43.40
2022-10-18T01:16:29.224Z,42.97
2022-10-18T01:19:14.591Z,41.27
2022-10-18T01:21:44.119Z,41.20
2022-10-18T01:24:26.031Z,41.93
2022-10-18T01:26:58.685Z,39.40
2022-10-18T01:29:37.078Z,43.00
2022-10-18T01:32:04.899Z,42.60
2022-10-18T01:34:33.618Z,46.57
2022-10-18T01:37:01.191Z,48.10
2022-10-18T01:39:33.042Z,45.60
2022-10-18T01:42:01.076Z,44.53
2022-10-18T01:44:29.070Z,46.10
2022-10-18T01:46:57.020Z,44.60
2022-10-18T01:49:24.408Z,45.90
2022-10-18T01:51:50.926Z,46.10
2022-10-18T01:54:19.184Z,51.70
2022-10-18T01:57:03.481Z,56.17
2022-10-18T01:59:36.717Z,49.87
2022-10-18T02:02:29.934Z,48.07
2022-10-18T02:05:02.868Z,51.10
2022-10-18T02:07:43.676Z,48.97
2022-10-18T02:10:12.129Z,55.87
2022-10-18T02:12:41.588Z,52.83
2022-10-18T02:15:10.034Z,59.00
2022-10-18T02:17:37.735Z,56.93
2022-10-18T02:20:05.555Z,59.97
2022-10-18T02:22:33.574Z,63.77
2022-10-18T02:25:02.734Z,58.00
2022-10-18T02:27:29.423Z,60.47
2022-10-18T02:29:56.136Z,65.10
2022-10-18T02:32:32.014Z,54.60
2022-10-18T02:35:01.314Z,64.27
2022-10-18T02:37:30.682Z,69.40
2022-10-18T02:39:57.448Z,73.73
2022-10-18T02:42:24.022Z,67.53
2022-10-18T02:44:50.588Z,75.47
2022-10-18T02:47:17.205Z,63.17
2022-10-18T02:49:43.744Z,73.70
2022-10-18T02:52:10.265Z,76.10
2022-10-18T02:54:36.859Z,67.93
2022-10-18T02:57:03.994Z,68.20
2022-10-18T02:59:30.641Z,57.67
2022-10-18T03:01:57.274Z,62.87
2022-10-18T03:04:24.058Z,63.90
2022-10-18T03:06:50.716Z,61.90
2022-10-18T03:09:17.390Z,61.07
2022-10-18T03:11:44.051Z,62.53
2022-10-18T03:14:10.823Z,63.33
2022-10-18T03:16:37.490Z,61.43
2022-10-18T03:19:04.094Z,50.67
2022-10-18T03:21:30.660Z,62.83
2022-10-18T03:23:58.772Z,57.53
2022-10-18T03:26:25.686Z,49.00
2022-10-18T03:28:52.319Z,68.77
2022-10-18T03:31:18.940Z,77.47
2022-10-18T03:33:45.882Z,82.80
2022-10-18T03:36:12.448Z,74.90
2022-10-18T03:38:39.045Z,89.37
2022-10-18T03:41:06.253Z,102.63
2022-10-18T03:43:32.805Z,55.27
2022-10-18T03:46:00.233Z,61.77
2022-10-18T03:48:26.811Z,63.33
2022-10-18T03:50:53.392Z,53.00
2022-10-18T03:53:19.958Z,51.87
2022-10-18T03:55:50.436Z,53.47
2022-10-18T03:58:16.966Z,49.73
2022-10-18T04:00:43.532Z,50.73
2022-10-18T04:03:10.130Z,53.17
2022-10-18T04:05:36.911Z,61.23
2022-10-18T04:08:03.688Z,55.90
2022-10-18T04:10:30.356Z,62.93
2022-10-18T04:12:56.900Z,51.27
2022-10-18T04:15:23.469Z,60.63
2022-10-18T04:17:50.038Z,54.17
2022-10-18T04:20:16.769Z,57.27
2022-10-18T04:22:43.359Z,71.57
2022-10-18T04:25:09.926Z,69.00
2022-10-18T04:27:37.371Z,65.20
2022-10-18T04:30:04.217Z,67.07
2022-10-18T04:32:30.853Z,65.57
2022-10-18T04:34:57.496Z,74.73
2022-10-18T04:37:24.158Z,68.00
2022-10-18T04:39:53.483Z,78.57
2022-10-18T04:42:21.001Z,101.77
2022-10-18T04:44:47.708Z,56.60
2022-10-18T04:47:14.395Z,61.17
2022-10-18T04:49:40.973Z,70.73
2022-10-18T04:52:07.591Z,70.07
2022-10-18T04:54:34.180Z,64.87
2022-10-18T04:57:00.789Z,65.30
2022-10-18T04:59:27.395Z,61.13
2022-10-18T05:01:54.067Z,68.70
2022-10-18T05:04:20.726Z,65.80
2022-10-18T05:06:47.432Z,64.67
2022-10-18T05:09:14.078Z,65.97
2022-10-18T05:11:40.661Z,68.53
2022-10-18T05:14:10.145Z,56.87
2022-10-18T05:16:36.766Z,59.53
2022-10-18T05:19:04.593Z,73.10
2022-10-18T05:21:31.303Z,68.60
2022-10-18T05:23:57.952Z,78.80
2022-10-18T05:26:24.541Z,67.73
2022-10-18T05:28:51.338Z,70.63
2022-10-18T05:31:18.023Z,69.67
2022-10-18T05:33:44.635Z,83.57
2022-10-18T05:36:11.371Z,87.17
2022-10-18T05:38:38.852Z,89.77
2022-10-18T05:41:05.666Z,88.83
2022-10-18T05:43:32.280Z,103.47
2022-10-18T05:45:58.927Z,94.13
2022-10-18T05:48:25.571Z,96.67
2022-10-18T05:50:52.180Z,109.17
2022-10-18T05:53:35.598Z,117.40
2022-10-18T05:56:03.407Z,97.63
2022-10-18T05:58:30.040Z,100.33
2022-10-18T06:01:03.294Z,103.77
2022-10-18T06:03:30.877Z,109.07
2022-10-18T06:06:01.856Z,99.57
2022-10-18T06:08:28.499Z,89.83
2022-10-18T06:10:55.138Z,97.83
2022-10-18T06:13:21.765Z,102.93
2022-10-18T06:15:48.332Z,104.57
2022-10-18T06:18:15.191Z,116.90
2022-10-18T06:20:41.797Z,111.67
2022-10-18T06:23:08.383Z,117.87
2022-10-18T06:25:35.034Z,106.13
2022-10-18T06:28:03.575Z,114.10
2022-10-18T06:30:30.460Z,112.63
2022-10-18T06:32:59.863Z,125.27
2022-10-18T06:35:26.412Z,109.37
2022-10-18T06:37:53.319Z,118.57
2022-10-18T06:40:20.029Z,123.60
2022-10-18T06:42:55.284Z,134.03
2022-10-18T06:45:27.321Z,114.40
2022-10-18T06:47:53.908Z,121.87
2022-10-18T06:50:20.493Z,122.83
2022-10-18T06:52:48.876Z,107.17
2022-10-18T06:55:15.429Z,132.63
2022-10-18T06:57:41.949Z,118.23
2022-10-18T07:00:08.892Z,127.67
2022-10-18T07:02:35.583Z,140.37
2022-10-18T07:05:02.151Z,123.40
2022-10-18T07:07:31.168Z,125.27
2022-10-18T07:09:57.923Z,126.53
2022-10-18T07:12:24.569Z,115.67
2022-10-18T07:14:51.183Z,144.73
2022-10-18T07:17:17.711Z,120.03
2022-10-18T07:19:44.290Z,117.27
2022-10-18T07:22:10.818Z,133.50
2022-10-18T07:24:37.414Z,113.90
2022-10-18T07:27:03.984Z,121.90
2022-10-18T07:29:30.669Z,136.90
2022-10-18T07:31:57.425Z,156.33
2022-10-18T07:34:24.039Z,145.80
2022-10-18T07:36:50.653Z,119.17
2022-10-18T07:39:17.279Z,120.70
2022-10-18T07:41:43.882Z,116.43
2022-10-18T07:44:10.926Z,130.93
2022-10-18T07:46:37.518Z,142.70
2022-10-18T07:49:04.191Z,139.43
2022-10-18T07:51:34.722Z,125.97
2022-10-18T07:54:01.352Z,141.13
2022-10-18T07:56:27.945Z,160.33
2022-10-18T07:58:55.970Z,144.80
2022-10-18T08:01:23.801Z,136.70
2022-10-18T08:03:50.691Z,148.70
2022-10-18T08:06:18.516Z,124.33
2022-10-18T08:08:45.372Z,145.87
2022-10-18T08:11:14.930Z,139.83
2022-10-18T08:13:42.015Z,145.43
2022-10-18T08:16:13.033Z,155.90
2022-10-18T08:18:40.027Z,115.80
2022-10-18T08:21:08.752Z,130.17
2022-10-18T08:23:35.751Z,143.57
2022-10-18T08:26:03.437Z,116.17
2022-10-18T08:28:30.090Z,111.87
2022-10-18T08:30:56.704Z,118.37
2022-10-18T08:33:23.700Z,125.07
2022-10-18T08:35:57.658Z,113.93
2022-10-18T08:38:24.301Z,119.93
2022-10-18T08:40:50.899Z,112.77
2022-10-18T08:46:02.813Z,108.20
2022-10-18T08:48:37.179Z,95.63
2022-10-18T08:51:04.919Z,83.43
2022-10-18T08:53:49.109Z,87.47
2022-10-18T08:56:18.858Z,80.77
2022-10-18T08:58:45.450Z,87.60
2022-10-18T09:01:21.124Z,82.80
2022-10-18T09:03:47.723Z,95.77
2022-10-18T09:06:25.530Z,87.27
2022-10-18T09:09:02.952Z,76.80
2022-10-18T09:11:29.487Z,77.80
2022-10-18T09:14:02.100Z,80.20
2022-10-18T09:16:36.872Z,78.33
2022-10-18T09:19:13.888Z,75.43
2022-10-18T09:21:43.525Z,72.60
2022-10-18T09:24:14.883Z,67.20
2022-10-18T09:26:54.327Z,73.27
2022-10-18T09:29:20.858Z,70.07
2022-10-18T09:31:56.865Z,71.10
2022-10-18T09:34:31.167Z,64.23
2022-10-18T09:36:57.906Z,71.50
2022-10-18T09:39:35.302Z,67.40
2022-10-18T09:42:05.554Z,68.43
2022-10-18T09:44:37.974Z,68.70
2022-10-18T09:47:16.875Z,64.43
2022-10-18T09:49:45.719Z,66.53
2022-10-18T09:52:25.473Z,60.77
2022-10-18T09:55:01.208Z,69.73
2022-10-18T09:57:27.707Z,64.30
2022-10-18T09:59:54.270Z,63.40
2022-10-18T10:02:22.837Z,61.20
2022-10-18T10:04:50.197Z,63.53
2022-10-18T10:07:21.384Z,61.30
2022-10-18T10:09:49.450Z,57.67
2022-10-18T10:12:29.750Z,65.77
2022-10-18T10:15:06.456Z,59.23
2022-10-18T10:17:33.678Z,59.90
2022-10-18T10:20:03.529Z,62.70
2022-10-18T10:22:38.025Z,59.93
2022-10-18T10:25:05.536Z,62.30
2022-10-18T10:27:43.517Z,77.40
2022-10-18T10:30:25.556Z,71.97
2022-10-18T10:32:53.348Z,70.97
2022-10-18T10:35:52.710Z,67.53
2022-10-18T10:38:23.757Z,66.53
2022-10-18T10:40:50.386Z,61.10
2022-10-18T10:43:42.803Z,61.53
2022-10-18T10:46:09.386Z,57.60
2022-10-18T10:49:09.518Z,58.63
2022-10-18T10:51:43.533Z,56.80
2022-10-18T10:54:15.864Z,55.33
2022-10-18T10:57:00.823Z,47.10
2022-10-18T10:59:30.291Z,48.37
2022-10-18T11:02:17.640Z,54.73
2022-10-18T11:04:44.925Z,53.27
2022-10-18T11:07:14.451Z,51.80
2022-10-18T11:09:53.441Z,47.63
2022-10-18T11:12:25.933Z,47.90
2022-10-18T11:15:12.029Z,49.57
2022-10-18T11:17:57.163Z,53.60
2022-10-18T11:20:27.632Z,45.17
2022-10-18T11:23:06.426Z,49.27
2022-10-18T11:25:51.196Z,46.60
2022-10-18T11:28:28.551Z,45.20
2022-10-18T11:31:07.360Z,36.83
2022-10-18T11:34:07.764Z,41.90
2022-10-18T11:36:49.325Z,45.40
2022-10-18T11:39:22.914Z,46.03
2022-10-18T11:41:49.386Z,51.77
2022-10-18T11:44:37.528Z,51.47
2022-10-18T11:47:22.922Z,45.00
2022-10-18T11:50:12.187Z,44.37
2022-10-18T11:52:47.084Z,44.07
2022-10-18T11:55:13.553Z,46.17
2022-10-18T11:57:59.004Z,42.43
2022-10-18T12:00:40.430Z,39.67
2022-10-18T12:03:30.367Z,46.57
2022-10-18T12:05:58.023Z,46.30
2022-10-18T12:08:24.568Z,46.13
2022-10-18T12:11:07.960Z,45.83
2022-10-18T12:13:35.114Z,43.60
2022-10-18T12:16:06.445Z,43.23
2022-10-18T12:18:33.719Z,43.97
2022-10-18T12:21:00.856Z,43.83
2022-10-18T12:23:38.065Z,48.30
2022-10-18T12:26:05.904Z,43.77
2022-10-18T12:28:32.547Z,35.87
2022-10-18T12:31:18.277Z,35.27
2022-10-18T12:33:47.477Z,34.33
2022-10-18T12:36:22.802Z,34.17
2022-10-18T12:39:09.737Z,29.07
2022-10-18T12:41:37.011Z,29.97
2022-10-18T12:44:03.611Z,34.27
2022-10-18T12:46:44.526Z,37.50
2022-10-18T12:49:12.700Z,34.70
2022-10-18T12:51:52.597Z,34.10
2022-10-18T12:54:25.263Z,33.30
2022-10-18T12:56:51.864Z,33.50
2022-10-18T12:59:18.749Z,31.63
2022-10-18T13:01:51.564Z,29.97
2022-10-18T13:04:27.526Z,26.77
2022-10-18T13:06:57.160Z,28.27
2022-10-18T13:09:24.983Z,27.40
2022-10-18T13:11:53.542Z,26.97
2022-10-18T13:14:26.283Z,25.90
2022-10-18T13:17:25.539Z,23.23
2022-10-18T13:20:20.529Z,23.30
2022-10-18T13:22:56.095Z,22.83
2022-10-18T13:25:29.341Z,22.67
2022-10-18T13:28:15.782Z,21.03
2022-10-18T13:31:02.397Z,23.50
2022-10-18T13:33:31.650Z,22.90
2022-10-18T13:36:01.137Z,22.40
2022-10-18T13:38:30.703Z,26.40
2022-10-18T13:41:04.868Z,22.87
2022-10-18T13:43:52.454Z,23.67
2022-10-18T13:46:19.237Z,23.67
2022-10-18T13:48:53.251Z,22.40
2022-10-18T13:51:19.697Z,24.50
2022-10-18T13:53:55.083Z,21.33
2022-10-18T13:56:33.179Z,22.37
2022-10-18T13:59:25.180Z,23.03
2022-10-18T14:02:01.116Z,25.97
2022-10-18T14:04:30.851Z,25.03
2022-10-18T14:07:02.182Z,27.43
2022-10-18T14:09:43.542Z,27.23
2022-10-18T14:12:23.152Z,26.23
2022-10-18T14:15:05.628Z,27.57
2022-10-18T14:17:36.176Z,32.30
2022-10-18T14:20:11.948Z,32.87
2022-10-18T14:22:42.800Z,36.37
2022-10-18T14:25:41.776Z,36.57
2022-10-18T14:28:12.220Z,44.07
2022-10-18T14:30:58.051Z,41.67
2022-10-18T14:33:38.169Z,45.20
2022-10-18T14:36:10.248Z,44.10
2022-10-18T14:38:58.495Z,41.33
2022-10-18T14:41:29.663Z,41.13
2022-10-18T14:44:14.581Z,42.70
2022-10-18T14:46:45.996Z,43.30
2022-10-18T14:49:13.509Z,40.40
2022-10-18T14:51:41.815Z,34.10
2022-10-18T14:56:45.665Z,31.10
2022-10-18T14:59:15.965Z,30.00
2022-10-18T15:01:50.921Z,29.17
2022-10-18T15:04:17.511Z,30.93
2022-10-18T15:06:44.638Z,30.00
2022-10-18T15:09:12.615Z,30.60
2022-10-18T15:11:41.214Z,25.37
2022-10-18T15:14:13.374Z,25.87
2022-10-18T15:16:40.907Z,23.60
2022-10-18T15:19:13.571Z,23.30
2022-10-18T15:21:49.686Z,25.23
2022-10-18T15:24:36.044Z,26.77
2022-10-18T15:27:10.889Z,25.27
2022-10-18T15:29:37.868Z,29.57
2022-10-18T15:32:07.006Z,28.20
2022-10-18T15:34:33.791Z,26.13
2022-10-18T15:37:14.796Z,25.30
2022-10-18T15:39:41.737Z,22.47
2022-10-18T15:42:29.000Z,19.73
2022-10-18T15:44:55.778Z,20.03
2022-10-18T15:47:24.223Z,16.63
2022-10-18T15:49:56.323Z,15.67
2022-10-18T15:52:31.536Z,16.30
2022-10-18T15:55:00.914Z,17.47
2022-10-18T15:57:31.283Z,14.43
2022-10-18T16:00:01.867Z,16.00
2022-10-18T16:02:48.741Z,15.20
2022-10-18T16:05:20.672Z,15.93
2022-10-18T16:07:53.354Z,14.50
2022-10-18T16:10:20.500Z,14.00
2022-10-18T16:12:47.247Z,17.70
2022-10-18T16:15:14.080Z,18.27
2022-10-18T16:17:40.667Z,17.87
2022-10-18T16:20:15.556Z,20.13
2022-10-18T16:22:42.592Z,19.87
2022-10-18T16:25:09.449Z,17.23
2022-10-18T16:27:36.200Z,18.00
2022-10-18T16:30:06.079Z,18.70
2022-10-18T16:32:35.306Z,19.50
2022-10-18T16:35:02.151Z,21.87
2022-10-18T16:37:28.948Z,20.20
2022-10-18T16:39:55.644Z,21.03
2022-10-18T16:42:22.184Z,26.50
2022-10-18T16:44:49.166Z,25.70
2022-10-18T16:47:16.567Z,24.07
2022-10-18T16:49:45.087Z,24.27
2022-10-18T16:52:11.687Z,26.00
2022-10-18T16:54:38.255Z,26.70
2022-10-18T16:57:04.864Z,27.57
2022-10-18T16:59:31.736Z,26.87
2022-10-18T17:01:58.317Z,27.70
2022-10-18T17:04:24.940Z,29.10
2022-10-18T17:06:52.597Z,29.23
2022-10-18T17:09:19.127Z,34.07
2022-10-18T17:11:45.755Z,34.07
2022-10-18T17:14:12.424Z,37.83
2022-10-18T17:16:39.363Z,33.77
2022-10-18T17:19:07.341Z,33.50
2022-10-18T17:21:33.961Z,33.27
2022-10-18T17:24:05.815Z,35.63
2022-10-18T17:26:33.008Z,35.63
2022-10-18T17:29:01.041Z,35.80
2022-10-18T17:31:28.329Z,33.53
2022-10-18T17:33:55.381Z,49.67
2022-10-18T17:36:22.381Z,40.37
2022-10-18T17:38:52.753Z,37.77
2022-10-18T17:41:19.469Z,40.20
2022-10-18T17:43:46.027Z,41.40
2022-10-18T17:46:14.197Z,40.33
2022-10-18T17:48:41.360Z,40.30
2022-10-18T17:51:08.647Z,33.30
2022-10-18T17:53:35.245Z,36.57
2022-10-18T17:56:02.940Z,36.40
2022-10-18T17:58:29.827Z,37.90
2022-10-18T18:00:56.543Z,35.97
2022-10-18T18:03:23.156Z,39.10
2022-10-18T18:05:49.865Z,36.10
2022-10-18T18:08:16.381Z,37.87
2022-10-18T18:10:43.012Z,39.77
2022-10-18T18:13:09.627Z,39.60
2022-10-18T18:15:36.127Z,40.57
2022-10-18T18:18:02.949Z,42.00
2022-10-18T18:20:29.441Z,43.77
2022-10-18T18:22:56.184Z,43.37
2022-10-18T18:25:22.764Z,44.70
2022-10-18T18:27:49.371Z,44.97
2022-10-18T18:30:17.789Z,42.33
2022-10-18T18:32:44.571Z,43.33
2022-10-18T18:35:11.123Z,41.13
2022-10-18T18:37:37.745Z,45.57
2022-10-18T18:40:04.471Z,42.57
2022-10-18T18:42:32.351Z,43.77
2022-10-18T18:45:02.245Z,50.07
2022-10-18T18:47:28.819Z,48.20
2022-10-18T18:49:55.411Z,49.90
2022-10-18T18:52:21.960Z,46.30
2022-10-18T18:54:48.521Z,52.60
2022-10-18T18:57:15.072Z,48.37
2022-10-18T18:59:41.774Z,48.53
2022-10-18T19:02:09.274Z,48.33
2022-10-18T19:04:36.349Z,42.10
2022-10-18T19:07:03.070Z,36.30
2022-10-18T19:09:29.791Z,36.10
2022-10-18T19:11:56.513Z,33.43
2022-10-18T19:14:25.135Z,33.30
2022-10-18T19:16:53.478Z,29.43
2022-10-18T19:19:21.060Z,29.97
2022-10-18T19:21:49.209Z,27.20
2022-10-18T19:24:15.814Z,27.70
2022-10-18T19:26:45.309Z,26.40
2022-10-18T19:29:14.574Z,30.50
2022-10-18T19:31:42.159Z,29.80
2022-10-18T19:34:10.737Z,27.63
2022-10-18T19:36:38.179Z,28.20
2022-10-18T19:39:05.696Z,26.73
2022-10-18T19:41:32.309Z,25.80
2022-10-18T19:43:59.051Z,24.27
2022-10-18T19:46:25.862Z,28.63
2022-10-18T19:48:54.177Z,27.47
2022-10-18T19:51:22.962Z,26.90
2022-10-18T19:53:51.850Z,26.00
2022-10-18T19:56:19.709Z,25.60
2022-10-18T19:58:46.350Z,28.03
2022-10-18T20:01:13.423Z,26.63
2022-10-18T20:03:40.745Z,24.70
2022-10-18T20:06:07.387Z,19.40
2022-10-18T20:08:34.880Z,20.70
2022-10-18T20:11:02.368Z,20.60
2022-10-18T20:13:29.132Z,20.90
2022-10-18T20:15:55.818Z,21.77
2022-10-18T20:18:22.341Z,21.17
2022-10-18T20:20:49.496Z,23.20
2022-10-18T20:23:16.969Z,22.10
2022-10-18T20:25:43.992Z,20.67
2022-10-18T20:28:10.463Z,21.80
2022-10-18T20:30:36.952Z,22.00
2022-10-18T20:33:03.429Z,21.60
2022-10-18T20:35:30.081Z,24.10
2022-10-18T20:37:56.639Z,21.17
2022-10-18T20:40:23.115Z,22.70
2022-10-18T20:42:51.064Z,24.23
2022-10-18T20:45:17.622Z,23.00
2022-10-18T20:47:44.145Z,21.43
2022-10-18T20:50:10.715Z,20.40
2022-10-18T20:52:37.469Z,20.90
2022-10-18T20:55:04.207Z,21.20
2022-10-18T20:57:34.184Z,18.20
2022-10-18T21:00:03.095Z,20.80
2022-10-18T21:02:29.679Z,20.43
2022-10-18T21:04:56.270Z,19.63
2022-10-18T21:07:22.861Z,19.70
2022-10-18T21:09:49.418Z,18.43
2022-10-18T21:12:16.017Z,16.03
2022-10-18T21:14:42.474Z,18.17
2022-10-18T21:17:09.052Z,16.40
2022-10-18T21:19:35.768Z,16.33
2022-10-18T21:22:02.470Z,15.83
2022-10-18T21:24:30.125Z,15.13
2022-10-18T21:26:56.868Z,14.87
2022-10-18T21:29:27.065Z,15.63
2022-10-18T21:31:55.333Z,15.97
2022-10-18T21:34:22.146Z,14.77
2022-10-18T21:36:49.062Z,15.80
2022-10-18T21:39:16.871Z,14.53
2022-10-18T21:41:44.163Z,14.33
2022-10-18T21:44:11.356Z,15.00
2022-10-18T21:46:39.226Z,15.30
2022-10-18T21:49:06.304Z,17.83
2022-10-18T21:51:32.925Z,15.90
2022-10-18T21:53:59.557Z,16.77
2022-10-18T21:56:31.298Z,17.10
2022-10-18T21:58:58.089Z,15.33
2022-10-18T22:01:29.046Z,14.30
2022-10-18T22:03:56.316Z,14.60
2022-10-18T22:06:23.231Z,14.67
2022-10-18T22:08:53.895Z,14.37
2022-10-18T22:11:21.854Z,15.07
2022-10-18T22:13:48.748Z,12.83
2022-10-18T22:16:16.584Z,13.60
2022-10-18T22:18:43.994Z,13.93
2022-10-18T22:21:11.445Z,14.00
2022-10-18T22:23:48.409Z,13.03
2022-10-18T22:26:18.370Z,12.07
2022-10-18T22:28:45.251Z,12.03
2022-10-18T22:31:16.520Z,10.60
2022-10-18T22:33:43.254Z,10.43
2022-10-18T22:36:09.909Z,13.43
2022-10-18T22:38:36.721Z,11.23
2022-10-18T22:41:09.903Z,15.47
2022-10-18T22:43:36.850Z,16.13
2022-10-18T22:46:04.193Z,20.03
2022-10-18T22:48:30.705Z,21.60
2022-10-18T22:50:57.567Z,20.77
2022-10-18T22:53:24.089Z,19.90
2022-10-18T22:55:51.131Z,21.10
2022-10-18T22:58:18.285Z,21.70
2022-10-18T23:00:44.810Z,18.73
2022-10-18T23:03:11.502Z,19.53
2022-10-18T23:05:39.244Z,18.60
2022-10-18T23:08:06.555Z,17.70
2022-10-18T23:10:33.356Z,18.07
2022-10-18T23:12:59.924Z,16.63
2022-10-18T23:15:26.532Z,15.60
2022-10-18T23:17:54.642Z,14.70
2022-10-18T23:20:21.825Z,13.77
2022-10-18T23:22:48.334Z,11.57
2022-10-18T23:25:15.165Z,11.20
2022-10-18T23:30:13.106Z,11.87
2022-10-18T23:32:39.722Z,11.63
2022-10-18T23:35:06.764Z,11.63
2022-10-18T23:37:33.840Z,11.60
2022-10-18T23:40:00.756Z,10.83
2022-10-18T23:42:27.564Z,11.50
2022-10-18T23:44:54.241Z,12.33
2022-10-18T23:47:20.898Z,14.17
2022-10-18T23:49:47.558Z,13.93
2022-10-18T23:52:14.089Z,11.17
2022-10-18T23:54:40.580Z,13.30
2022-10-18T23:57:07.218Z,12.77
2022-10-18T23:59:33.678Z,11.90
